Time;durP1;ratioP1;P1;durP2;ratioP2;P2;SDS_P1;SDS_P2;PMS_P1;PMS_P2;Temp;Humidity;BMP_temperature;BMP_pressure;BME280_temperature;BME280_humidity;BME280_pressure;Samples;Min_cycle;Max_cycle;Signal;HPM_P1;HPM_P2
2022/11/18 00:00:12;;;;;;;21.02;18.83;;;7.70;99.90;;;;;;5113440;28;20051;-68
2022/11/18 00:02:38;;;;;;;21.60;19.33;;;7.70;99.90;;;;;;5113559;28;20055;-68
2022/11/18 00:05:03;;;;;;;19.13;17.23;;;7.70;99.90;;;;;;5113574;28;20039;-68
2022/11/18 00:07:29;;;;;;;22.42;18.50;;;7.70;99.90;;;;;;5113468;28;20488;-68
2022/11/18 00:09:54;;;;;;;20.27;18.13;;;7.70;99.90;;;;;;5113807;28;20027;-68
2022/11/18 00:15:11;;;;;;;21.25;19.05;;;7.70;99.90;;;;;;5082427;28;20047;-68
2022/11/18 00:17:37;;;;;;;21.50;17.95;;;7.70;99.90;;;;;;5113371;28;20039;-68
2022/11/18 00:20:03;;;;;;;19.17;17.23;;;7.70;99.90;;;;;;5113077;28;20409;-68
2022/11/18 00:22:28;;;;;;;21.27;18.70;;;7.70;99.90;;;;;;5113246;28;20047;-68
2022/11/18 00:24:54;;;;;;;19.20;16.85;;;7.80;99.90;;;;;;5112954;28;20110;-68
2022/11/18 00:27:19;;;;;;;20.55;18.50;;;7.70;99.90;;;;;;5113223;28;20126;-68
2022/11/18 00:29:45;;;;;;;21.30;19.10;;;7.70;99.90;;;;;;5113553;28;20118;-68
2022/11/18 00:32:10;;;;;;;24.38;20.13;;;7.80;99.90;;;;;;5113159;28;20092;-68
2022/11/18 00:34:36;;;;;;;20.65;18.45;;;7.70;99.90;;;;;;5113019;28;20127;-68
2022/11/18 00:37:02;;;;;;;21.42;19.02;;;7.70;99.90;;;;;;5113013;28;20127;-68
2022/11/18 00:39:27;;;;;;;24.38;20.63;;;7.80;99.90;;;;;;5112994;28;20079;-68
2022/11/18 00:44:37;;;;;;;20.83;18.65;;;7.70;99.90;;;;;;5113181;28;20571;-68
2022/11/18 00:47:03;;;;;;;26.83;20.90;;;7.70;99.90;;;;;;5113531;28;20079;-68
2022/11/18 00:49:28;;;;;;;31.95;21.65;;;7.80;99.90;;;;;;5113568;28;20078;-68
2022/11/18 00:51:54;;;;;;;21.58;18.58;;;7.70;99.90;;;;;;5096715;28;20032;-68
2022/11/18 00:54:20;;;;;;;31.13;21.85;;;7.80;99.90;;;;;;5114874;28;20412;-68
2022/11/18 00:56:45;;;;;;;28.73;22.55;;;7.80;99.90;;;;;;5113437;28;20044;-68
2022/11/18 00:59:11;;;;;;;26.95;21.08;;;7.80;99.90;;;;;;5113337;28;20055;-68
2022/11/18 01:01:36;;;;;;;26.42;21.10;;;7.80;99.90;;;;;;5113747;28;20043;-68
2022/11/18 01:04:02;;;;;;;23.63;20.40;;;7.80;99.90;;;;;;5113280;28;20086;-68
2022/11/18 01:06:28;;;;;;;26.75;20.85;;;7.80;99.90;;;;;;5112992;28;20031;-68
2022/11/18 01:08:53;;;;;;;26.20;22.00;;;7.80;99.90;;;;;;5113294;28;20488;-68
2022/11/18 01:14:03;;;;;;;33.08;23.42;;;7.80;99.90;;;;;;5113565;28;20043;-68
2022/11/18 01:16:29;;;;;;;34.15;23.75;;;7.80;99.90;;;;;;5113144;28;20044;-68
2022/11/18 01:18:55;;;;;;;24.50;20.88;;;7.80;99.90;;;;;;5113275;28;20052;-68
2022/11/18 01:21:21;;;;;;;31.67;24.15;;;7.80;99.90;;;;;;5113169;28;20039;-68
2022/11/18 01:23:47;;;;;;;30.95;23.10;;;7.80;99.90;;;;;;5114730;28;20093;-68
2022/11/18 01:26:14;;;;;;;30.13;22.52;;;7.80;99.90;;;;;;5113191;28;20087;-68
2022/11/18 01:28:40;;;;;;;33.28;23.58;;;7.80;99.90;;;;;;5113423;28;20039;-68
2022/11/18 01:31:15;;;;;;;28.63;23.00;;;7.80;99.90;;;;;;5113568;28;20036;-68
2022/11/18 01:33:41;;;;;;;28.40;23.17;;;7.80;99.90;;;;;;5112776;28;20122;-68
2022/11/18 01:36:21;;;;;;;31.48;24.42;;;7.90;99.90;;;;;;5113891;28;20485;-68
2022/11/18 01:38:47;;;;;;;30.35;22.17;;;7.80;99.90;;;;;;5112598;28;20050;-68
2022/11/18 01:41:14;;;;;;;32.78;24.23;;;7.80;99.90;;;;;;5112539;28;20403;-68
2022/11/18 01:44:00;;;;;;;29.65;24.05;;;7.80;99.90;;;;;;5112541;28;20040;-68
2022/11/18 01:46:29;;;;;;;32.75;23.35;;;7.80;99.90;;;;;;5112566;28;20050;-68
2022/11/18 01:49:07;;;;;;;29.48;21.88;;;7.80;99.90;;;;;;5112362;28;20119;-68
2022/11/18 01:51:48;;;;;;;33.72;23.92;;;7.80;99.90;;;;;;5112422;28;20097;-68
2022/11/18 01:54:19;;;;;;;26.15;21.95;;;7.90;99.90;;;;;;5112598;28;20060;-67
2022/11/18 01:56:50;;;;;;;28.45;23.20;;;7.80;99.90;;;;;;5114732;28;20043;-67
2022/11/18 01:59:21;;;;;;;35.83;24.80;;;7.80;99.90;;;;;;5115930;28;20035;-67
2022/11/18 02:01:47;;;;;;;34.30;24.48;;;7.80;99.90;;;;;;5115800;28;20071;-67
2022/11/18 02:04:13;;;;;;;30.65;22.83;;;7.80;99.90;;;;;;5115716;28;20132;-68
2022/11/18 02:06:40;;;;;;;33.28;24.15;;;7.70;99.90;;;;;;5115773;28;20036;-68
2022/11/18 02:09:06;;;;;;;29.83;24.10;;;7.80;99.90;;;;;;5115814;28;20043;-68
2022/11/18 02:11:50;;;;;;;27.17;22.05;;;7.80;99.90;;;;;;5115845;28;20036;-68
2022/11/18 02:14:18;;;;;;;34.65;23.77;;;7.80;99.90;;;;;;5116987;28;20411;-68
2022/11/18 02:17:05;;;;;;;28.83;22.80;;;7.80;99.90;;;;;;5115747;28;20059;-68
2022/11/18 02:19:45;;;;;;;34.67;24.13;;;7.80;99.90;;;;;;5115822;28;20047;-68
2022/11/18 02:22:23;;;;;;;32.75;23.52;;;7.80;99.90;;;;;;5115499;28;20055;-68
2022/11/18 02:25:17;;;;;;;30.52;23.60;;;7.80;99.90;;;;;;5115477;28;20044;-68
2022/11/18 02:28:20;;;;;;;34.80;23.83;;;7.80;99.90;;;;;;5115403;28;20044;-68
2022/11/18 02:31:06;;;;;;;32.38;23.50;;;7.80;99.90;;;;;;5115848;28;20442;-68
2022/11/18 02:34:19;;;;;;;32.05;23.50;;;7.80;99.90;;;;;;5115184;28;20079;-68
2022/11/18 02:37:15;;;;;;;33.90;24.33;;;7.80;99.90;;;;;;5084245;28;20059;-68
2022/11/18 02:40:02;;;;;;;32.47;22.73;;;7.90;99.90;;;;;;5104864;28;20409;-68
2022/11/18 02:42:31;;;;;;;29.50;23.13;;;7.80;99.90;;;;;;5114919;28;20043;-68
2022/11/18 02:45:02;;;;;;;34.80;24.17;;;7.80;99.90;;;;;;5115056;28;20047;-68
2022/11/18 02:47:31;;;;;;;39.25;25.60;;;7.80;99.90;;;;;;5115257;28;20032;-68
2022/11/18 02:50:05;;;;;;;27.48;21.73;;;7.80;99.90;;;;;;5115427;28;20480;-68
2022/11/18 02:52:32;;;;;;;28.17;21.67;;;7.80;99.90;;;;;;5114718;28;20469;-68
2022/11/18 02:54:59;;;;;;;28.45;21.60;;;7.80;99.90;;;;;;5114918;28;20074;-68
2022/11/18 02:57:29;;;;;;;30.83;23.10;;;7.80;99.90;;;;;;5115042;28;20052;-68
2022/11/18 02:59:54;;;;;;;31.88;22.52;;;7.80;99.90;;;;;;5114843;28;20475;-68
2022/11/18 03:02:21;;;;;;;35.25;24.90;;;7.80;99.90;;;;;;5114988;28;20079;-68
2022/11/18 03:04:48;;;;;;;31.77;24.15;;;7.80;99.90;;;;;;5114508;28;20047;-68
2022/11/18 03:07:29;;;;;;;25.95;20.55;;;7.80;99.90;;;;;;5114512;28;20042;-69
2022/11/18 03:09:58;;;;;;;32.30;22.67;;;7.80;99.90;;;;;;5114849;28;20046;-68
2022/11/18 03:12:29;;;;;;;30.55;22.42;;;7.80;99.90;;;;;;5115836;28;20047;-68
2022/11/18 03:15:10;;;;;;;32.42;24.02;;;7.80;99.90;;;;;;5114656;28;20043;-68
2022/11/18 03:17:41;;;;;;;29.80;22.17;;;7.80;99.90;;;;;;5114782;28;20039;-68
2022/11/18 03:20:21;;;;;;;28.80;21.63;;;7.80;99.90;;;;;;5097317;28;20039;-69
2022/11/18 03:22:54;;;;;;;28.17;20.92;;;7.80;99.90;;;;;;5114135;28;20039;-68
2022/11/18 03:25:27;;;;;;;32.88;23.02;;;7.80;99.90;;;;;;5114744;28;20032;-68
2022/11/18 03:28:01;;;;;;;;;;;7.80;99.90;;;;;;5114971;28;20188;-68
2022/11/18 03:30:31;;;;;;;38.42;23.98;;;7.70;99.90;;;;;;5114338;28;19922;-68
2022/11/18 03:33:05;;;;;;;26.33;19.80;;;7.70;99.90;;;;;;5114191;28;20046;-68
2022/11/18 03:35:33;;;;;;;28.38;21.75;;;7.80;99.90;;;;;;5114470;28;20036;-68
2022/11/18 03:38:05;;;;;;;27.35;21.33;;;7.80;99.90;;;;;;5114195;28;20035;-68
2022/11/18 03:40:34;;;;;;;29.40;22.70;;;7.80;99.90;;;;;;5114282;28;20035;-68
2022/11/18 03:43:08;;;;;;;26.38;20.38;;;7.80;99.90;;;;;;5114276;28;20043;-68
2022/11/18 03:45:45;;;;;;;25.65;19.70;;;7.80;99.90;;;;;;5114378;28;20039;-68
2022/11/18 03:48:15;;;;;;;28.23;21.35;;;7.80;99.90;;;;;;5114207;28;20119;-69
2022/11/18 03:50:49;;;;;;;27.08;20.70;;;7.80;99.90;;;;;;5114195;28;20492;-68
2022/11/18 03:53:17;;;;;;;26.60;20.67;;;7.80;99.90;;;;;;5114086;28;20070;-68
2022/11/18 03:55:49;;;;;;;27.73;22.13;;;7.80;99.90;;;;;;5113892;28;20129;-68
2022/11/18 03:58:51;;;;;;;28.55;22.10;;;7.80;99.90;;;;;;5114018;28;20404;-68
2022/11/18 04:01:42;;;;;;;23.70;19.42;;;7.80;99.90;;;;;;5096758;28;20132;-68
2022/11/18 04:04:08;;;;;;;28.48;20.63;;;7.80;99.90;;;;;;5113718;28;20044;-68
2022/11/18 04:06:49;;;;;;;32.42;23.27;;;7.70;99.90;;;;;;5113802;28;20096;-68
2022/11/18 04:09:23;;;;;;;29.38;20.77;;;7.80;99.90;;;;;;5113760;28;20046;-69
2022/11/18 04:12:03;;;;;;;25.83;20.20;;;7.80;99.90;;;;;;5113585;28;20493;-70
2022/11/18 04:14:51;;;;;;;27.48;21.05;;;7.80;99.90;;;;;;5113634;28;20043;-70
2022/11/18 04:17:20;;;;;;;25.35;20.13;;;7.80;99.90;;;;;;5113375;28;20058;-70
2022/11/18 04:19:45;;;;;;;31.88;23.63;;;7.80;99.90;;;;;;5112946;28;20047;-70
2022/11/18 04:22:11;;;;;;;24.88;20.17;;;7.80;99.90;;;;;;5113341;28;20067;-70
2022/11/18 04:24:37;;;;;;;29.58;22.17;;;7.80;99.90;;;;;;5113052;28;20134;-70
2022/11/18 04:27:03;;;;;;;29.25;20.90;;;7.70;99.90;;;;;;5113121;28;20040;-70
2022/11/18 04:29:30;;;;;;;28.60;21.13;;;7.80;99.90;;;;;;5113212;28;20031;-70
2022/11/18 04:31:56;;;;;;;23.70;20.38;;;7.80;99.90;;;;;;5112986;28;20061;-70
2022/11/18 04:34:21;;;;;;;25.15;20.00;;;7.80;99.90;;;;;;5114412;28;20036;-70
2022/11/18 04:36:47;;;;;;;26.13;20.48;;;7.70;99.90;;;;;;5113201;28;20571;-70
2022/11/18 04:39:12;;;;;;;25.77;19.38;;;7.70;99.90;;;;;;5096501;28;20043;-70
2022/11/18 04:41:56;;;;;;;26.52;19.90;;;7.70;99.90;;;;;;5112972;28;20488;-70
2022/11/18 04:44:23;;;;;;;26.20;20.83;;;7.60;99.90;;;;;;5113505;28;20415;-70
2022/11/18 04:46:49;;;;;;;31.48;21.08;;;7.60;99.90;;;;;;5113053;28;20082;-70
2022/11/18 04:49:15;;;;;;;23.92;18.05;;;7.60;99.90;;;;;;5113062;28;20070;-73
2022/11/18 04:51:42;;;;;;;25.48;19.27;;;7.60;99.90;;;;;;5115028;28;20054;-71
2022/11/18 04:54:09;;;;;;;29.05;20.23;;;7.60;99.90;;;;;;5113112;28;20044;-70
2022/11/18 04:56:34;;;;;;;21.95;19.25;;;7.60;99.90;;;;;;5113047;28;20047;-70
2022/11/18 04:59:01;;;;;;;22.50;19.17;;;7.50;99.90;;;;;;5113117;28;20051;-70
2022/11/18 05:01:27;;;;;;;27.38;21.17;;;7.50;99.90;;;;;;5112728;28;20040;-70
2022/11/18 05:03:53;;;;;;;30.17;19.77;;;7.50;99.90;;;;;;5112987;28;20047;-70
2022/11/18 05:06:19;;;;;;;22.88;18.00;;;7.50;99.90;;;;;;5113051;28;20035;-70
2022/11/18 05:08:45;;;;;;;29.77;20.90;;;7.50;99.90;;;;;;5112930;28;20044;-70
2022/11/18 05:13:59;;;;;;;26.38;19.48;;;7.50;99.90;;;;;;5075389;28;20083;-70
2022/11/18 05:16:24;;;;;;;22.65;17.75;;;7.50;99.90;;;;;;5112869;28;20508;-70
2022/11/18 05:18:50;;;;;;;26.67;19.70;;;7.50;99.90;;;;;;5112827;28;20118;-70
2022/11/18 05:21:16;;;;;;;26.42;19.13;;;7.50;99.90;;;;;;5112943;28;20122;-70
2022/11/18 05:23:41;;;;;;;25.30;18.65;;;7.50;99.90;;;;;;5114395;28;20082;-70
2022/11/18 05:26:09;;;;;;;26.17;19.25;;;7.50;99.90;;;;;;5114166;28;20040;-70
2022/11/18 05:28:35;;;;;;;27.92;20.17;;;7.50;99.90;;;;;;5113118;28;20039;-70
2022/11/18 05:31:12;;;;;;;30.63;20.65;;;7.50;99.90;;;;;;5113805;28;20038;-70
2022/11/18 05:33:38;;;;;;;29.10;19.80;;;7.50;99.90;;;;;;5099579;28;20122;-70
2022/11/18 05:36:05;;;;;;;29.92;19.92;;;7.40;99.90;;;;;;5099541;28;20127;-70
2022/11/18 05:38:33;;;;;;;30.02;20.35;;;7.50;99.90;;;;;;5117937;28;20062;-70
2022/11/18 05:40:58;;;;;;;30.20;20.33;;;7.50;99.90;;;;;;5116324;28;20032;-70
2022/11/18 05:43:24;;;;;;;27.70;19.92;;;7.40;99.90;;;;;;5115936;28;20108;-70
2022/11/18 05:45:51;;;;;;;25.80;18.73;;;7.50;99.90;;;;;;5116433;28;20039;-69
2022/11/18 05:48:17;;;;;;;26.80;18.90;;;7.50;99.90;;;;;;5116880;28;20051;-70
2022/11/18 05:50:46;;;;;;;25.65;19.10;;;7.50;99.90;;;;;;5116601;28;20035;-70
2022/11/18 05:53:12;;;;;;;27.67;19.85;;;7.50;99.90;;;;;;5116599;28;20075;-70
2022/11/18 05:55:45;;;;;;;21.50;17.73;;;7.50;99.90;;;;;;5117383;28;20074;-70
2022/11/18 05:58:11;;;;;;;27.65;19.35;;;7.50;99.90;;;;;;5116548;28;20405;-70
2022/11/18 06:00:36;;;;;;;27.00;19.67;;;7.50;99.90;;;;;;5116176;28;20050;-70
2022/11/18 06:03:07;;;;;;;27.10;19.20;;;7.40;99.90;;;;;;5116329;28;20040;-70
2022/11/18 06:05:32;;;;;;;26.30;19.00;;;7.50;99.90;;;;;;5116413;28;20161;-70
2022/11/18 06:07:58;;;;;;;29.70;19.30;;;7.50;99.90;;;;;;5116457;28;20181;-70
2022/11/18 06:10:28;;;;;;;32.42;20.38;;;7.50;99.90;;;;;;5116348;28;20540;-70
2022/11/18 06:12:57;;;;;;;28.52;19.83;;;7.40;99.90;;;;;;5117251;28;20043;-70
2022/11/18 06:15:26;;;;;;;28.42;19.95;;;7.50;99.90;;;;;;5116092;28;20057;-70
2022/11/18 06:18:01;;;;;;;29.45;20.35;;;7.40;99.90;;;;;;5115642;28;20043;-70
2022/11/18 06:20:27;;;;;;;24.52;18.83;;;7.40;99.90;;;;;;5116358;28;20036;-70
2022/11/18 06:22:56;;;;;;;30.00;20.25;;;7.40;99.90;;;;;;5116070;28;20518;-70
2022/11/18 06:25:22;;;;;;;24.92;17.98;;;7.40;99.90;;;;;;5116343;28;20040;-70
2022/11/18 06:27:50;;;;;;;29.98;19.70;;;7.40;99.90;;;;;;5117288;28;20100;-70
2022/11/18 06:30:17;;;;;;;27.83;19.73;;;7.40;99.90;;;;;;5116678;28;20484;-70
2022/11/18 06:32:42;;;;;;;23.83;18.27;;;7.40;99.90;;;;;;5116918;28;20071;-70
2022/11/18 06:35:08;;;;;;;25.75;19.45;;;7.40;99.90;;;;;;5116329;28;20437;-70
2022/11/18 06:37:34;;;;;;;31.38;19.95;;;7.40;99.90;;;;;;5116373;28;20043;-70
2022/11/18 06:39:59;;;;;;;28.88;19.25;;;7.40;99.90;;;;;;5117777;28;20046;-70
2022/11/18 06:45:12;;;;;;;26.83;19.13;;;7.40;99.90;;;;;;5116115;28;20051;-70
2022/11/18 06:47:38;;;;;;;25.38;19.17;;;7.30;99.90;;;;;;5116196;28;20032;-70
2022/11/18 06:50:04;;;;;;;29.60;19.15;;;7.30;99.90;;;;;;5116637;28;20101;-71
2022/11/18 06:52:30;;;;;;;25.73;18.52;;;7.30;99.90;;;;;;5118361;28;20035;-70
2022/11/18 06:54:55;;;;;;;25.70;18.48;;;7.30;99.90;;;;;;5118870;28;20522;-70
2022/11/18 06:57:21;;;;;;;24.55;16.75;;;7.30;99.90;;;;;;5117703;28;20396;-70
2022/11/18 06:59:46;;;;;;;27.65;19.33;;;7.30;99.90;;;;;;5116165;28;20484;-70
2022/11/18 07:02:12;;;;;;;25.70;18.92;;;7.30;99.90;;;;;;5115752;28;20043;-70
2022/11/18 07:04:39;;;;;;;28.17;19.50;;;7.40;99.90;;;;;;5117383;28;20044;-70
2022/11/18 07:07:06;;;;;;;28.95;18.92;;;7.40;99.90;;;;;;5115692;28;20122;-70
2022/11/18 07:09:33;;;;;;;29.35;19.02;;;7.30;99.90;;;;;;5115988;28;20039;-70
2022/11/18 07:11:59;;;;;;;27.05;17.83;;;7.40;99.90;;;;;;5115900;28;20071;-70
2022/11/18 07:14:24;;;;;;;22.35;16.05;;;7.40;99.90;;;;;;5115209;28;20078;-70
2022/11/18 07:16:50;;;;;;;22.05;15.02;;;7.30;99.90;;;;;;5116757;28;20099;-70
2022/11/18 07:19:16;;;;;;;22.58;15.35;;;7.40;99.90;;;;;;5116307;28;20190;-70
2022/11/18 07:21:42;;;;;;;26.15;16.08;;;7.30;99.90;;;;;;5115677;28;20044;-70
2022/11/18 07:24:10;;;;;;;20.65;14.82;;;7.30;99.90;;;;;;5115919;28;20048;-70
2022/11/18 07:26:36;;;;;;;24.23;16.35;;;7.30;99.90;;;;;;5115830;28;20048;-70
2022/11/18 07:29:02;;;;;;;21.35;15.52;;;7.30;99.90;;;;;;5116698;28;20038;-70
2022/11/18 07:31:28;;;;;;;21.23;15.85;;;7.30;99.90;;;;;;5116470;28;20047;-70
2022/11/18 07:33:53;;;;;;;24.10;16.17;;;7.20;99.90;;;;;;5116333;28;20047;-70
2022/11/18 07:36:25;;;;;;;23.00;15.50;;;7.20;99.90;;;;;;5115227;28;20050;-70
2022/11/18 07:38:51;;;;;;;25.00;16.15;;;7.20;99.90;;;;;;5114271;28;20043;-70
2022/11/18 07:41:22;;;;;;;25.92;16.08;;;7.20;99.90;;;;;;5114939;28;20449;-70
2022/11/18 07:43:49;;;;;;;24.33;16.13;;;7.20;99.90;;;;;;5114661;28;20040;-70
2022/11/18 07:46:18;;;;;;;26.13;16.55;;;7.20;99.90;;;;;;5097098;28;20404;-70
2022/11/18 07:48:45;;;;;;;24.27;16.55;;;7.20;99.90;;;;;;5115595;28;20061;-70
2022/11/18 07:51:13;;;;;;;27.20;17.15;;;7.20;99.90;;;;;;5115238;28;20040;-70
2022/11/18 07:53:38;;;;;;;25.63;15.98;;;7.20;99.90;;;;;;5113850;28;20039;-70
2022/11/18 07:56:05;;;;;;;25.45;16.13;;;7.20;99.90;;;;;;5114837;28;20040;-70
2022/11/18 07:58:31;;;;;;;20.92;15.60;;;7.20;99.90;;;;;;5114576;28;20036;-70
2022/11/18 08:00:57;;;;;;;23.95;16.40;;;7.20;99.90;;;;;;5114354;28;20108;-70
2022/11/18 08:03:27;;;;;;;22.42;14.90;;;7.20;99.90;;;;;;5114254;28;20485;-70
2022/11/18 08:06:03;;;;;;;24.08;15.85;;;7.20;99.90;;;;;;5114648;28;20050;-70
2022/11/18 08:08:28;;;;;;;24.20;13.70;;;7.20;99.90;;;;;;5114711;28;20070;-70
2022/11/18 08:10:55;;;;;;;21.67;14.45;;;7.10;99.90;;;;;;5114286;28;20538;-70
2022/11/18 08:13:21;;;;;;;20.95;13.98;;;7.10;99.90;;;;;;5115757;28;20063;-70
2022/11/18 08:15:47;;;;;;;19.52;13.27;;;7.10;99.90;;;;;;5113959;28;20101;-70
2022/11/18 08:18:12;;;;;;;19.20;13.15;;;7.10;99.90;;;;;;5115199;28;20118;-70
2022/11/18 08:20:38;;;;;;;21.10;13.68;;;7.10;99.90;;;;;;5114067;28;20048;-70
2022/11/18 08:23:03;;;;;;;20.00;13.55;;;7.10;99.90;;;;;;5113837;28;20051;-70
2022/11/18 08:25:29;;;;;;;18.90;13.48;;;7.10;99.90;;;;;;5113826;28;20039;-70
2022/11/18 08:27:54;;;;;;;19.75;13.60;;;7.10;99.90;;;;;;5113634;28;20093;-70
2022/11/18 08:30:20;;;;;;;22.50;13.77;;;7.10;99.90;;;;;;5114117;28;20046;-71
2022/11/18 08:32:46;;;;;;;19.77;13.40;;;7.10;99.90;;;;;;5113836;28;20502;-70
2022/11/18 08:35:11;;;;;;;18.55;14.43;;;7.10;99.90;;;;;;5115549;28;20036;-70
2022/11/18 08:37:37;;;;;;;19.90;14.18;;;7.10;99.90;;;;;;5114960;28;20040;-70
2022/11/18 08:40:03;;;;;;;19.92;14.38;;;7.10;99.90;;;;;;5114407;28;20612;-69
2022/11/18 08:42:28;;;;;;;19.33;14.18;;;7.10;99.90;;;;;;5114117;28;20047;-70
2022/11/18 08:44:54;;;;;;;19.48;13.70;;;7.10;99.90;;;;;;5116353;28;20047;-70
2022/11/18 08:47:20;;;;;;;19.27;14.57;;;7.10;99.90;;;;;;5115790;28;20040;-70
2022/11/18 08:49:46;;;;;;;18.88;13.27;;;7.10;99.90;;;;;;5113690;28;20067;-70
2022/11/18 08:52:11;;;;;;;19.20;13.38;;;7.10;99.90;;;;;;5113075;28;20098;-70
2022/11/18 08:54:37;;;;;;;17.45;12.30;;;7.10;99.90;;;;;;5113405;28;20044;-70
2022/11/18 08:57:03;;;;;;;18.10;12.68;;;7.10;99.90;;;;;;5113509;28;20118;-70
2022/11/18 08:59:28;;;;;;;17.73;12.85;;;7.10;99.90;;;;;;5113895;28;20450;-70
2022/11/18 09:01:54;;;;;;;19.27;12.55;;;7.10;99.90;;;;;;5113430;28;20047;-70
2022/11/18 09:04:19;;;;;;;18.48;12.98;;;7.10;99.90;;;;;;5096291;28;20044;-70
2022/11/18 09:06:45;;;;;;;17.02;12.35;;;7.10;99.90;;;;;;5117542;28;20039;-70
2022/11/18 09:09:10;;;;;;;21.85;13.10;;;7.10;99.90;;;;;;5117556;28;20050;-70
2022/11/18 09:11:38;;;;;;;16.95;12.70;;;7.10;99.90;;;;;;5117258;28;20054;-70
2022/11/18 09:14:04;;;;;;;17.17;13.43;;;7.10;99.90;;;;;;5117388;28;20044;-70
2022/11/18 09:16:31;;;;;;;21.40;14.20;;;7.10;99.90;;;;;;5117467;28;20044;-70
2022/11/18 09:18:57;;;;;;;22.25;13.68;;;7.10;99.90;;;;;;5117811;28;20118;-70
2022/11/18 09:21:24;;;;;;;19.95;14.05;;;7.10;99.90;;;;;;5117512;28;20054;-70
2022/11/18 09:23:50;;;;;;;20.58;14.30;;;7.10;99.90;;;;;;5117052;28;20488;-70
2022/11/18 09:26:18;;;;;;;22.45;14.90;;;7.10;99.90;;;;;;5116477;28;20046;-71
2022/11/18 09:28:43;;;;;;;19.90;14.32;;;7.10;99.90;;;;;;5116696;28;20377;-71
2022/11/18 09:31:12;;;;;;;22.77;15.27;;;7.10;99.90;;;;;;5117071;28;20516;-70
2022/11/18 09:33:38;;;;;;;25.38;15.65;;;7.10;99.90;;;;;;5118229;28;20085;-71
2022/11/18 09:36:10;;;;;;;24.75;16.70;;;7.10;99.90;;;;;;5117850;28;20052;-71
2022/11/18 09:38:36;;;;;;;21.60;14.95;;;7.10;99.90;;;;;;5118623;28;20047;-71
2022/11/18 09:41:31;;;;;;;21.40;14.88;;;7.10;99.90;;;;;;5118204;28;20048;-70
2022/11/18 09:44:20;;;;;;;22.00;14.80;;;7.20;99.90;;;;;;5117825;28;20097;-70
2022/11/18 09:47:08;;;;;;;18.45;13.05;;;7.20;99.90;;;;;;5118807;28;20031;-71
2022/11/18 09:49:37;;;;;;;19.50;14.02;;;7.20;99.90;;;;;;5117040;28;20103;-71
2022/11/18 09:52:09;;;;;;;18.80;14.55;;;7.10;99.90;;;;;;5117552;28;20055;-71
2022/11/18 09:54:36;;;;;;;21.05;15.30;;;7.10;99.90;;;;;;5117045;28;20079;-71
2022/11/18 09:57:10;;;;;;;20.52;14.98;;;7.10;99.90;;;;;;5116585;28;20043;-71
2022/11/18 09:59:36;;;;;;;17.63;12.93;;;7.10;99.90;;;;;;5116032;28;20039;-71
2022/11/18 10:02:26;;;;;;;18.13;13.73;;;7.10;99.90;;;;;;5115796;28;20085;-70
2022/11/18 10:04:55;;;;;;;16.00;12.10;;;7.10;99.90;;;;;;5115736;28;20043;-71
2022/11/18 10:07:35;;;;;;;16.63;12.48;;;7.10;99.90;;;;;;5117723;28;20042;-70
2022/11/18 10:10:09;;;;;;;16.45;12.98;;;7.10;99.90;;;;;;5116016;28;20088;-70
2022/11/18 10:12:42;;;;;;;14.93;12.32;;;7.00;99.90;;;;;;5115950;28;20082;-71
2022/11/18 10:15:32;;;;;;;18.42;13.63;;;7.00;99.90;;;;;;5117438;28;20535;-70
2022/11/18 10:18:15;;;;;;;17.98;12.25;;;7.00;99.90;;;;;;5115712;28;20088;-71
2022/11/18 10:20:56;;;;;;;15.75;12.02;;;7.00;99.90;;;;;;5116687;28;20047;-71
2022/11/18 10:23:28;;;;;;;15.25;11.05;;;7.00;99.90;;;;;;5116298;28;20051;-70
2022/11/18 10:25:54;;;;;;;14.57;11.38;;;7.00;99.90;;;;;;5116069;28;20075;-70
2022/11/18 10:28:21;;;;;;;17.05;12.27;;;7.00;99.90;;;;;;5116449;28;20492;-70
2022/11/18 10:30:47;;;;;;;17.67;12.93;;;7.00;99.90;;;;;;5115861;28;20410;-70
2022/11/18 10:33:24;;;;;;;16.85;12.50;;;7.00;99.90;;;;;;5117037;28;20032;-70
2022/11/18 10:36:07;;;;;;;18.42;13.35;;;7.10;99.90;;;;;;5116023;28;20036;-70
2022/11/18 10:38:32;;;;;;;19.23;12.83;;;7.00;99.90;;;;;;5117184;28;20038;-70
2022/11/18 10:41:02;;;;;;;19.30;13.80;;;7.00;99.90;;;;;;5117237;28;20281;-70
2022/11/18 10:43:44;;;;;;;19.65;14.05;;;7.00;99.90;;;;;;5115729;28;20070;-70
2022/11/18 10:46:25;;;;;;;16.73;13.67;;;7.00;99.90;;;;;;5115733;28;20047;-70
2022/11/18 10:49:09;;;;;;;19.65;14.07;;;7.00;99.90;;;;;;5116158;28;20189;-70
2022/11/18 10:51:36;;;;;;;18.33;13.30;;;7.10;99.90;;;;;;5115667;28;20044;-70
2022/11/18 10:54:14;;;;;;;14.10;11.23;;;7.10;99.90;;;;;;5116037;28;20043;-71
2022/11/18 10:56:58;;;;;;;17.35;12.95;;;7.00;99.90;;;;;;5115396;28;20075;-70
2022/11/18 10:59:31;;;;;;;18.90;13.85;;;7.00;99.90;;;;;;5115745;28;20537;-70
2022/11/18 11:02:14;;;;;;;17.42;13.13;;;7.00;99.90;;;;;;5098224;28;20089;-70
2022/11/18 11:04:40;;;;;;;18.85;14.07;;;7.00;99.90;;;;;;5115393;28;20461;-71
2022/11/18 11:07:27;;;;;;;16.80;13.07;;;7.00;99.90;;;;;;5115135;28;20062;-70
2022/11/18 11:10:21;;;;;;;17.42;12.15;;;7.00;99.90;;;;;;5098369;28;20047;-71
2022/11/18 11:12:54;;;;;;;17.75;12.93;;;7.10;99.90;;;;;;5115381;28;20044;-70
2022/11/18 11:15:35;;;;;;;18.20;13.43;;;7.10;99.90;;;;;;5115656;28;20050;-70
2022/11/18 11:20:55;;;;;;;17.48;13.05;;;7.10;99.90;;;;;;5114780;28;20051;-71
2022/11/18 11:23:24;;;;;;;16.92;12.82;;;7.10;99.90;;;;;;5115127;28;20044;-71
2022/11/18 11:26:16;;;;;;;17.38;12.65;;;7.20;99.90;;;;;;5115515;28;20040;-70
2022/11/18 11:28:50;;;;;;;17.00;12.48;;;7.20;99.90;;;;;;5115359;28;20040;-70
2022/11/18 11:31:28;;;;;;;16.42;12.30;;;7.20;99.90;;;;;;5114849;28;20039;-70
2022/11/18 11:34:13;;;;;;;15.90;11.45;;;7.10;99.90;;;;;;5116068;28;20049;-70
2022/11/18 11:37:13;;;;;;;13.45;10.82;;;7.10;99.90;;;;;;5117246;28;20043;-70
2022/11/18 11:39:49;;;;;;;15.48;10.77;;;7.10;99.90;;;;;;5117304;28;20036;-71
2022/11/18 11:42:36;;;;;;;15.25;11.43;;;7.10;99.90;;;;;;5115139;28;20381;-70
2022/11/18 11:45:27;;;;;;;14.75;10.80;;;7.10;99.90;;;;;;5115470;28;20067;-70
2022/11/18 11:48:08;;;;;;;12.85;10.43;;;7.10;99.90;;;;;;5115450;28;20065;-70
2022/11/18 11:51:03;;;;;;;12.73;10.25;;;7.10;99.90;;;;;;5098332;28;20035;-71
2022/11/18 11:53:55;;;;;;;14.55;10.52;;;7.10;99.90;;;;;;5111779;28;20055;-70
2022/11/18 11:56:34;;;;;;;13.68;9.90;;;7.10;99.90;;;;;;5115328;28;20079;-71
2022/11/18 11:59:25;;;;;;;13.45;10.40;;;7.10;99.90;;;;;;5114777;28;20043;-70
2022/11/18 12:02:14;;;;;;;12.50;9.23;;;7.00;99.90;;;;;;5114188;28;20101;-71
2022/11/18 12:05:06;;;;;;;12.70;9.70;;;7.00;99.90;;;;;;5114033;28;20073;-71
2022/11/18 12:07:51;;;;;;;14.35;9.40;;;7.00;99.90;;;;;;5067139;28;20097;-71
2022/11/18 12:10:41;;;;;;;12.68;9.02;;;6.90;99.90;;;;;;5114417;28;20039;-71
2022/11/18 12:13:47;;;;;;;11.98;8.90;;;6.90;99.90;;;;;;5113976;28;20479;-71
2022/11/18 12:16:38;;;;;;;14.30;9.50;;;6.90;99.90;;;;;;5110542;28;20557;-71
2022/11/18 12:19:13;;;;;;;15.23;10.25;;;6.90;99.90;;;;;;5108840;28;20058;-71
2022/11/18 12:21:45;;;;;;;15.95;11.43;;;6.90;99.90;;;;;;5096522;28;20039;-70
2022/11/18 12:24:31;;;;;;;13.73;10.68;;;6.90;99.90;;;;;;5112830;28;20036;-70
2022/11/18 12:27:03;;;;;;;14.23;10.45;;;7.00;99.90;;;;;;5113220;28;20032;-70
2022/11/18 12:29:37;;;;;;;14.48;9.82;;;6.90;99.90;;;;;;5113553;28;20035;-71
2022/11/18 12:32:13;;;;;;;16.35;9.93;;;6.90;99.90;;;;;;5113365;28;20115;-71
2022/11/18 12:34:40;;;;;;;15.13;9.73;;;6.80;99.90;;;;;;5113463;28;20609;-71
2022/11/18 12:37:24;;;;;;;14.55;10.45;;;6.90;99.90;;;;;;5113381;28;20079;-71
2022/11/18 12:39:59;;;;;;;13.75;9.43;;;6.90;99.90;;;;;;5113085;28;20062;-71
2022/11/18 12:45:41;;;;;;;15.77;10.73;;;6.80;99.90;;;;;;5113323;28;20055;-70
2022/11/18 12:48:31;;;;;;;13.88;10.02;;;6.80;99.90;;;;;;5113379;28;20040;-71
2022/11/18 12:51:23;;;;;;;14.48;10.13;;;6.80;99.90;;;;;;5099582;28;20059;-71
2022/11/18 12:53:50;;;;;;;13.90;9.77;;;6.80;99.90;;;;;;5096576;28;20090;-70
2022/11/18 12:56:16;;;;;;;14.30;10.20;;;6.80;99.90;;;;;;5113536;28;20099;-70
2022/11/18 12:59:01;;;;;;;14.88;9.13;;;6.70;99.90;;;;;;5113332;28;20123;-70
2022/11/18 13:01:34;;;;;;;13.35;9.35;;;6.70;99.90;;;;;;5112818;28;20089;-70
2022/11/18 13:04:20;;;;;;;14.18;9.90;;;6.60;99.90;;;;;;5112694;28;20126;-70
2022/11/18 13:06:46;;;;;;;13.38;9.50;;;6.60;99.90;;;;;;5112891;28;20050;-70
2022/11/18 13:09:18;;;;;;;13.75;9.80;;;6.60;99.90;;;;;;5113463;28;20040;-71
2022/11/18 13:11:50;;;;;;;15.93;10.10;;;6.60;99.90;;;;;;5114395;28;20044;-70
2022/11/18 13:20:22;;;;;;;16.67;10.38;;;6.50;99.90;;;;;;5113439;28;20044;-71
2022/11/18 13:25:38;;;;;;;14.88;9.80;;;6.50;99.90;;;;;;5113437;28;20051;-70
2022/11/18 13:28:44;;;;;;;15.02;10.55;;;6.50;99.90;;;;;;5113953;28;20131;-71